createdAt,value
2022-11-18T00:01:16.595Z,5.00
2022-11-18T00:03:43.903Z,5.00
2022-11-18T00:06:12.234Z,5.00
2022-11-18T00:08:38.987Z,5.00
2022-11-18T00:11:06.423Z,5.00
2022-11-18T00:13:52.088Z,5.00
2022-11-18T00:16:18.841Z,5.00
2022-11-18T00:18:45.500Z,5.00
2022-11-18T00:21:12.710Z,5.00
2022-11-18T00:23:39.627Z,5.00
2022-11-18T00:26:07.531Z,5.00
2022-11-18T00:28:35.035Z,5.00
2022-11-18T00:31:06.354Z,5.00
2022-11-18T00:33:33.328Z,5.00
2022-11-18T00:36:00.206Z,4.90
2022-11-18T00:38:27.336Z,4.90
2022-11-18T00:41:01.017Z,4.90
2022-11-18T00:43:27.697Z,4.90
2022-11-18T00:45:54.357Z,4.80
2022-11-18T00:48:21.985Z,4.80
2022-11-18T00:50:52.580Z,4.80
2022-11-18T00:53:19.761Z,4.80
2022-11-18T00:55:46.565Z,4.80
2022-11-18T00:58:15.966Z,4.80
2022-11-18T01:00:48.544Z,4.80
2022-11-18T01:03:15.741Z,4.80
2022-11-18T01:05:42.784Z,4.80
2022-11-18T01:08:10.232Z,4.80
2022-11-18T01:10:37.513Z,4.80
2022-11-18T01:13:20.270Z,4.80
2022-11-18T01:15:48.895Z,4.80
2022-11-18T01:18:16.024Z,4.80
2022-11-18T01:20:43.178Z,4.80
2022-11-18T01:23:09.970Z,4.80
2022-11-18T01:25:37.753Z,4.70
2022-11-18T01:28:04.705Z,4.70
2022-11-18T01:30:38.200Z,4.70
2022-11-18T01:33:05.337Z,4.70
2022-11-18T01:35:39.437Z,4.60
2022-11-18T01:38:06.538Z,4.60
2022-11-18T01:40:33.553Z,4.60
2022-11-18T01:43:00.236Z,4.60
2022-11-18T01:45:33.079Z,4.60
2022-11-18T01:48:09.611Z,4.60
2022-11-18T01:50:38.828Z,4.60
2022-11-18T01:53:11.630Z,4.50
2022-11-18T01:55:38.994Z,4.50
2022-11-18T01:58:07.636Z,4.50
2022-11-18T02:00:34.716Z,4.50
2022-11-18T02:03:02.109Z,4.50
2022-11-18T02:05:29.578Z,4.50
2022-11-18T02:07:56.823Z,4.50
2022-11-18T02:10:24.967Z,4.50
2022-11-18T02:12:54.627Z,4.50
2022-11-18T02:15:25.570Z,4.40
2022-11-18T02:18:02.330Z,4.40
2022-11-18T02:20:30.861Z,4.40
2022-11-18T02:23:11.574Z,4.30
2022-11-18T02:25:41.294Z,4.30
2022-11-18T02:28:23.295Z,4.30
2022-11-18T02:30:53.412Z,4.30
2022-11-18T02:33:25.045Z,4.30
2022-11-18T02:36:01.341Z,4.40
2022-11-18T02:38:30.081Z,4.40
2022-11-18T02:40:59.509Z,4.40
2022-11-18T02:43:28.734Z,4.30
2022-11-18T02:45:58.474Z,4.40
2022-11-18T02:48:26.549Z,4.40
2022-11-18T02:50:54.367Z,4.40
2022-11-18T02:53:23.299Z,4.30
2022-11-18T02:55:50.728Z,4.40
2022-11-18T02:58:18.725Z,4.30
2022-11-18T03:00:45.683Z,4.30
2022-11-18T03:03:23.652Z,4.30
2022-11-18T03:05:54.442Z,4.30
2022-11-18T03:08:25.946Z,4.30
2022-11-18T03:10:55.931Z,4.30
2022-11-18T03:13:34.573Z,4.30
2022-11-18T03:16:03.884Z,4.30
2022-11-18T03:18:37.133Z,4.30
2022-11-18T03:21:08.210Z,4.30
2022-11-18T03:23:42.930Z,4.40
2022-11-18T03:26:12.474Z,4.30
2022-11-18T03:28:48.229Z,4.30
2022-11-18T03:31:35.207Z,4.30
2022-11-18T03:34:20.756Z,4.30
2022-11-18T03:36:51.965Z,4.20
2022-11-18T03:39:21.131Z,4.20
2022-11-18T03:42:06.627Z,4.20
2022-11-18T03:44:34.652Z,4.10
2022-11-18T03:47:05.057Z,4.10
2022-11-18T03:49:40.420Z,4.10
2022-11-18T03:52:10.302Z,4.10
2022-11-18T03:54:39.153Z,4.10
2022-11-18T03:57:09.458Z,4.10
2022-11-18T03:59:38.846Z,4.10
2022-11-18T04:02:20.602Z,4.10
2022-11-18T04:04:49.272Z,4.20
2022-11-18T04:07:15.967Z,4.20
2022-11-18T04:09:45.105Z,4.20
2022-11-18T04:12:14.731Z,4.20
2022-11-18T04:14:43.084Z,4.20
2022-11-18T04:17:17.161Z,4.20
2022-11-18T04:19:43.900Z,4.20
2022-11-18T04:22:11.603Z,4.20
2022-11-18T04:24:38.557Z,4.20
2022-11-18T04:27:06.153Z,4.20
2022-11-18T04:29:33.571Z,4.20
2022-11-18T04:32:00.886Z,4.20
2022-11-18T04:34:28.197Z,4.20
2022-11-18T04:36:54.929Z,4.20
2022-11-18T04:39:21.761Z,4.20
2022-11-18T04:41:57.409Z,4.10
2022-11-18T04:44:28.673Z,4.20
2022-11-18T04:46:56.221Z,4.20
2022-11-18T04:49:23.357Z,4.20
2022-11-18T04:51:50.145Z,4.10
2022-11-18T04:54:17.340Z,4.10
2022-11-18T04:56:49.137Z,4.00
2022-11-18T04:59:18.902Z,4.00
2022-11-18T05:01:45.946Z,3.90
2022-11-18T05:04:13.477Z,3.90
2022-11-18T05:06:40.246Z,3.90
2022-11-18T05:09:07.001Z,3.90
2022-11-18T05:11:52.489Z,3.90
2022-11-18T05:14:19.186Z,3.90
2022-11-18T05:16:46.008Z,3.90
2022-11-18T05:19:12.757Z,3.80
2022-11-18T05:21:39.469Z,3.80
2022-11-18T05:24:06.289Z,3.80
2022-11-18T05:26:33.307Z,3.80
2022-11-18T05:29:00.009Z,3.80
2022-11-18T05:31:26.732Z,3.80
2022-11-18T05:33:53.632Z,3.80
2022-11-18T05:36:20.956Z,3.80
2022-11-18T05:38:47.805Z,3.80
2022-11-18T05:41:33.383Z,3.80
2022-11-18T05:44:00.143Z,3.80
2022-11-18T05:46:26.912Z,3.80
2022-11-18T05:48:53.631Z,3.80
2022-11-18T05:51:20.528Z,3.70
2022-11-18T05:53:51.495Z,3.70
2022-11-18T05:56:20.242Z,3.70
2022-11-18T05:58:46.952Z,3.70
2022-11-18T06:01:15.738Z,3.70
2022-11-18T06:03:42.684Z,3.60
2022-11-18T06:06:10.306Z,3.60
2022-11-18T06:08:39.233Z,3.60
2022-11-18T06:11:07.335Z,3.60
2022-11-18T06:13:36.448Z,3.60
2022-11-18T06:16:03.685Z,3.50
2022-11-18T06:18:31.618Z,3.50
2022-11-18T06:21:00.214Z,3.50
2022-11-18T06:23:28.641Z,3.40
2022-11-18T06:25:55.348Z,3.40
2022-11-18T06:28:22.664Z,3.40
2022-11-18T06:30:49.331Z,3.40
2022-11-18T06:33:16.006Z,3.40
2022-11-18T06:35:43.055Z,3.40
2022-11-18T06:38:09.757Z,3.40
2022-11-18T06:40:37.542Z,3.40
2022-11-18T06:43:26.634Z,3.40
2022-11-18T06:46:12.630Z,3.40
2022-11-18T06:48:39.292Z,3.40
2022-11-18T06:51:06.510Z,3.50
2022-11-18T06:53:33.688Z,3.40
2022-11-18T06:56:06.925Z,3.40
2022-11-18T06:58:33.700Z,3.30
2022-11-18T07:01:11.445Z,3.30
2022-11-18T07:03:38.896Z,3.20
2022-11-18T07:06:05.933Z,3.20
2022-11-18T07:08:34.070Z,3.20
2022-11-18T07:11:00.789Z,3.20
2022-11-18T07:13:27.494Z,3.20
2022-11-18T07:15:54.150Z,3.30
2022-11-18T07:18:20.843Z,3.30
2022-11-18T07:20:47.548Z,3.30
2022-11-18T07:23:14.156Z,3.30
2022-11-18T07:25:45.141Z,3.30
2022-11-18T07:28:12.122Z,3.30
2022-11-18T07:30:38.819Z,3.40
2022-11-18T07:33:05.477Z,3.30
2022-11-18T07:35:32.809Z,3.30
2022-11-18T07:37:59.463Z,3.30
2022-11-18T07:40:26.103Z,3.30
2022-11-18T07:42:53.667Z,3.30
2022-11-18T07:45:23.731Z,3.30
2022-11-18T07:47:50.446Z,3.30
2022-11-18T07:50:17.954Z,3.30
2022-11-18T07:52:44.703Z,3.20
2022-11-18T07:55:11.332Z,3.20
2022-11-18T07:57:38.166Z,3.20
2022-11-18T08:00:05.060Z,3.10
2022-11-18T08:02:38.814Z,3.10
2022-11-18T08:05:05.941Z,3.10
2022-11-18T08:07:32.811Z,3.10
2022-11-18T08:09:59.624Z,3.00
2022-11-18T08:12:26.279Z,3.00
2022-11-18T08:14:52.944Z,3.00
2022-11-18T08:17:19.796Z,3.00
2022-11-18T08:19:46.544Z,3.00
2022-11-18T08:22:13.389Z,3.00
2022-11-18T08:24:40.072Z,3.00
2022-11-18T08:27:06.771Z,3.00
2022-11-18T08:29:33.413Z,3.00
2022-11-18T08:32:00.090Z,3.00
2022-11-18T08:34:27.948Z,3.00
2022-11-18T08:36:55.214Z,3.00
2022-11-18T08:39:21.959Z,3.00
2022-11-18T08:41:49.057Z,3.00
2022-11-18T08:44:16.455Z,2.90
2022-11-18T08:46:45.482Z,3.00
2022-11-18T08:49:12.256Z,2.90
2022-11-18T08:51:38.906Z,2.90
2022-11-18T08:54:05.640Z,2.90
2022-11-18T08:56:32.330Z,2.90
2022-11-18T08:58:58.979Z,2.90
2022-11-18T09:01:25.881Z,2.80
2022-11-18T09:03:52.767Z,2.70
2022-11-18T09:06:20.883Z,2.70
2022-11-18T09:08:48.142Z,2.70
2022-11-18T09:11:25.731Z,2.70
2022-11-18T09:16:44.164Z,2.70
2022-11-18T09:19:45.040Z,2.60
2022-11-18T09:21:58.718Z,2.50
2022-11-18T09:24:25.492Z,2.50
2022-11-18T09:26:53.626Z,2.50
2022-11-18T09:29:25.188Z,2.50
2022-11-18T09:31:52.488Z,2.50
2022-11-18T09:34:19.534Z,2.60
2022-11-18T09:36:46.554Z,2.50
2022-11-18T09:39:13.360Z,2.40
2022-11-18T09:41:43.788Z,2.50
2022-11-18T09:44:10.509Z,2.50
2022-11-18T09:46:49.487Z,2.50
2022-11-18T09:49:21.573Z,2.50
2022-11-18T09:51:49.961Z,2.50
2022-11-18T09:54:21.560Z,2.40
2022-11-18T09:56:49.114Z,2.40
2022-11-18T09:59:18.849Z,2.40
2022-11-18T10:01:45.989Z,2.40
2022-11-18T10:04:17.668Z,2.30
2022-11-18T10:06:45.307Z,2.30
2022-11-18T10:09:22.494Z,2.30
2022-11-18T10:12:01.976Z,2.20
2022-11-18T10:14:31.628Z,2.20
2022-11-18T10:17:04.795Z,2.20
2022-11-18T10:19:42.944Z,2.20
2022-11-18T10:22:25.109Z,2.10
2022-11-18T10:24:53.487Z,2.10
2022-11-18T10:27:20.615Z,2.10
2022-11-18T10:29:55.461Z,2.00
2022-11-18T10:32:22.101Z,2.00
2022-11-18T10:34:55.939Z,2.00
2022-11-18T10:40:24.219Z,1.90
2022-11-18T10:42:50.879Z,1.90
2022-11-18T10:45:17.596Z,1.90
2022-11-18T10:47:56.323Z,1.90
2022-11-18T10:50:28.437Z,1.90
2022-11-18T10:52:55.220Z,1.80
2022-11-18T10:55:25.676Z,1.80
2022-11-18T10:57:54.936Z,1.80
2022-11-18T11:00:40.040Z,1.80
2022-11-18T11:03:23.621Z,1.80
2022-11-18T11:06:09.386Z,1.80
2022-11-18T11:08:47.493Z,1.90
2022-11-18T11:11:25.914Z,1.90
2022-11-18T11:13:58.185Z,1.80
2022-11-18T11:16:26.587Z,1.80
2022-11-18T11:18:56.456Z,1.80
2022-11-18T11:21:23.305Z,1.70
2022-11-18T11:23:50.004Z,1.70
2022-11-18T11:29:20.976Z,1.60
2022-11-18T11:31:53.804Z,1.60
2022-11-18T11:34:20.457Z,1.50
2022-11-18T11:37:00.697Z,1.50
2022-11-18T11:39:45.578Z,1.50
2022-11-18T11:42:23.073Z,1.40
2022-11-18T11:45:02.553Z,1.40
2022-11-18T11:47:47.646Z,1.40
2022-11-18T11:50:19.457Z,1.40
2022-11-18T11:53:05.292Z,1.30
2022-11-18T11:55:34.720Z,1.20
2022-11-18T11:58:01.510Z,1.10
2022-11-18T12:00:30.153Z,1.10
2022-11-18T12:03:13.586Z,1.10
2022-11-18T12:05:43.004Z,1.00
2022-11-18T12:08:09.706Z,1.00
2022-11-18T12:10:45.733Z,1.00
2022-11-18T12:13:24.764Z,1.00
2022-11-18T12:16:10.032Z,1.10
2022-11-18T12:18:39.879Z,1.20
2022-11-18T12:21:06.577Z,1.30
2022-11-18T12:23:33.714Z,1.20
2022-11-18T12:26:04.981Z,1.20
2022-11-18T12:28:41.448Z,1.20
2022-11-18T12:31:21.143Z,1.10
2022-11-18T12:33:51.919Z,1.00
2022-11-18T12:36:35.426Z,1.00
2022-11-18T12:39:20.990Z,1.00
2022-11-18T12:42:06.580Z,0.90
2022-11-18T12:44:33.244Z,0.80
2022-11-18T12:47:00.813Z,0.80
2022-11-18T12:49:27.502Z,0.70
2022-11-18T12:51:58.634Z,0.80
2022-11-18T12:54:34.378Z,0.70
2022-11-18T12:57:12.475Z,0.80
2022-11-18T12:59:39.130Z,0.80
2022-11-18T13:02:17.462Z,0.90
2022-11-18T13:04:47.570Z,0.80
2022-11-18T13:07:36.111Z,0.80
2022-11-18T13:10:12.130Z,0.80
2022-11-18T13:12:39.842Z,0.70
2022-11-18T13:15:29.350Z,0.70
2022-11-18T13:18:05.607Z,0.80
2022-11-18T13:20:36.305Z,0.70
2022-11-18T13:23:44.026Z,0.70
2022-11-18T13:26:22.188Z,0.70
2022-11-18T13:28:55.271Z,0.70
2022-11-18T13:31:40.739Z,0.70
2022-11-18T13:34:19.209Z,0.70
2022-11-18T13:36:47.247Z,0.70
2022-11-18T13:39:23.340Z,0.60
2022-11-18T13:42:06.731Z,0.60
2022-11-18T13:44:37.327Z,0.70
2022-11-18T13:47:20.550Z,0.60
2022-11-18T13:49:50.595Z,0.60
2022-11-18T13:52:27.613Z,0.60
2022-11-18T13:54:55.360Z,0.50
2022-11-18T13:57:23.391Z,0.50
2022-11-18T13:59:51.305Z,0.50
2022-11-18T14:02:18.879Z,0.40
2022-11-18T14:05:04.847Z,0.40
2022-11-18T14:07:33.011Z,0.30
2022-11-18T14:10:01.028Z,0.30
2022-11-18T14:12:29.507Z,0.40
2022-11-18T14:15:13.024Z,0.30
2022-11-18T14:17:49.489Z,0.20
2022-11-18T14:20:16.890Z,0.20
2022-11-18T14:22:44.081Z,0.10
2022-11-18T14:25:29.505Z,0.10
2022-11-18T14:27:57.681Z,0.10
2022-11-18T14:30:27.749Z,0.10
2022-11-18T14:33:03.717Z,0.00
2022-11-18T14:35:33.560Z,0.00
2022-11-18T14:38:35.514Z,-0.10
2022-11-18T14:40:54.521Z,-0.10
2022-11-18T14:43:22.245Z,-0.10
2022-11-18T14:45:49.022Z,-0.20
2022-11-18T14:48:17.303Z,-0.20
2022-11-18T14:50:43.993Z,-0.20
2022-11-18T14:53:12.357Z,-0.20
2022-11-18T14:55:39.356Z,-0.20
2022-11-18T14:58:06.122Z,-0.20
2022-11-18T15:00:32.903Z,-0.30
2022-11-18T15:02:59.758Z,-0.30
2022-11-18T15:05:26.509Z,-0.40
2022-11-18T15:07:53.238Z,-0.50
2022-11-18T15:10:20.148Z,-0.50
2022-11-18T15:12:48.142Z,-0.60
2022-11-18T15:15:15.947Z,-0.60
2022-11-18T15:17:42.658Z,-0.70
2022-11-18T15:20:13.973Z,-0.70
2022-11-18T15:22:40.847Z,-0.70
2022-11-18T15:25:08.044Z,-0.80
2022-11-18T15:27:34.827Z,-0.80
2022-11-18T15:30:02.082Z,-0.80
2022-11-18T15:32:28.896Z,-0.80
2022-11-18T15:34:55.985Z,-0.90
2022-11-18T15:37:22.810Z,-0.90
2022-11-18T15:39:50.482Z,-0.90
2022-11-18T15:42:23.141Z,-1.00
2022-11-18T15:44:50.469Z,-1.00
2022-11-18T15:47:17.107Z,-0.90
2022-11-18T15:49:45.336Z,-0.90
2022-11-18T15:52:12.581Z,-0.90
2022-11-18T15:54:39.609Z,-0.90
2022-11-18T15:57:06.278Z,-0.90
2022-11-18T15:59:32.974Z,-0.90
2022-11-18T16:01:59.719Z,-0.90
2022-11-18T16:04:27.267Z,-0.90
2022-11-18T16:06:54.238Z,-0.90
2022-11-18T16:09:21.617Z,-0.90
2022-11-18T16:12:07.281Z,-0.90
2022-11-18T16:14:36.042Z,-0.90
2022-11-18T16:17:02.734Z,-0.90
2022-11-18T16:19:33.311Z,-1.00
2022-11-18T16:22:00.258Z,-1.10
2022-11-18T16:24:28.591Z,-1.10
2022-11-18T16:26:55.586Z,-1.10
2022-11-18T16:29:22.856Z,-1.10
2022-11-18T16:31:52.915Z,-1.10
2022-11-18T16:34:21.285Z,-1.20
2022-11-18T16:36:52.236Z,-1.10
2022-11-18T16:39:20.367Z,-1.20
2022-11-18T16:41:47.579Z,-1.10
2022-11-18T16:44:15.698Z,-1.00
2022-11-18T16:46:45.896Z,-1.00
2022-11-18T16:49:13.937Z,-1.10
2022-11-18T16:51:42.637Z,-1.00
2022-11-18T16:54:17.000Z,-1.00
2022-11-18T16:56:43.969Z,-1.00
2022-11-18T16:59:15.079Z,-1.10
2022-11-18T17:01:41.810Z,-1.10
2022-11-18T17:04:08.925Z,-1.10
2022-11-18T17:06:35.726Z,-1.20
2022-11-18T17:09:02.474Z,-1.20
2022-11-18T17:11:29.206Z,-1.20
2022-11-18T17:13:58.305Z,-1.20
2022-11-18T17:16:25.655Z,-1.20
2022-11-18T17:18:56.376Z,-1.20
2022-11-18T17:21:23.225Z,-1.20
2022-11-18T17:23:50.265Z,-1.20
2022-11-18T17:26:18.590Z,-1.10
2022-11-18T17:28:45.331Z,-1.10
2022-11-18T17:31:13.344Z,-1.10
2022-11-18T17:33:40.498Z,-1.10
2022-11-18T17:36:08.561Z,-1.10
2022-11-18T17:38:39.166Z,-1.20
2022-11-18T17:41:06.329Z,-1.20
2022-11-18T17:43:33.083Z,-1.20
2022-11-18T17:46:00.359Z,-1.10
2022-11-18T17:48:28.333Z,-1.10
2022-11-18T17:51:02.445Z,-1.10
2022-11-18T17:53:29.079Z,-1.10
2022-11-18T17:55:58.378Z,-1.10
2022-11-18T17:58:29.174Z,-1.10
2022-11-18T18:00:55.846Z,-1.10
2022-11-18T18:03:22.766Z,-1.10
2022-11-18T18:05:49.524Z,-1.10
2022-11-18T18:08:16.212Z,-1.10
2022-11-18T18:10:43.122Z,-1.10
2022-11-18T18:13:28.815Z,-1.10
2022-11-18T18:15:59.093Z,-1.10
2022-11-18T18:18:25.780Z,-1.10
2022-11-18T18:20:52.479Z,-1.10
2022-11-18T18:23:19.129Z,-1.10
2022-11-18T18:25:45.743Z,-1.10
2022-11-18T18:28:12.900Z,-1.10
2022-11-18T18:30:39.558Z,-1.00
2022-11-18T18:33:06.397Z,-1.00
2022-11-18T18:35:33.276Z,-1.00
2022-11-18T18:38:02.281Z,-1.00
2022-11-18T18:40:29.029Z,-1.00
2022-11-18T18:42:55.775Z,-1.00
2022-11-18T18:45:41.264Z,-1.00
2022-11-18T18:48:09.862Z,-1.00
2022-11-18T18:50:39.289Z,-1.00
2022-11-18T18:53:06.552Z,-1.00
2022-11-18T18:55:33.225Z,-1.00
2022-11-18T18:57:59.943Z,-1.10
2022-11-18T19:00:26.656Z,-1.00
2022-11-18T19:02:53.857Z,-1.00
2022-11-18T19:05:33.314Z,-1.00
2022-11-18T19:08:07.218Z,-1.00
2022-11-18T19:10:38.129Z,-1.00
2022-11-18T19:13:05.256Z,-1.00
2022-11-18T19:15:34.735Z,-1.00
2022-11-18T19:18:04.876Z,-1.00
2022-11-18T19:20:34.585Z,-0.90
2022-11-18T19:23:08.636Z,-1.00
2022-11-18T19:25:36.727Z,-1.00
2022-11-18T19:28:03.512Z,-1.00
2022-11-18T19:30:30.166Z,-1.10
2022-11-18T19:32:59.098Z,-1.10
2022-11-18T19:35:26.185Z,-1.10
2022-11-18T19:37:53.262Z,-1.20
2022-11-18T19:40:20.006Z,-1.20
2022-11-18T19:42:47.737Z,-1.20
2022-11-18T19:45:14.401Z,-1.20
2022-11-18T19:47:41.134Z,-1.20
2022-11-18T19:50:08.261Z,-1.20
2022-11-18T19:52:34.959Z,-1.20
2022-11-18T19:55:01.618Z,-1.20
2022-11-18T19:57:28.335Z,-1.20
2022-11-18T19:59:55.167Z,-1.20
2022-11-18T20:02:22.274Z,-1.20
2022-11-18T20:05:07.817Z,-1.30
2022-11-18T20:07:34.637Z,-1.30
2022-11-18T20:10:01.427Z,-1.30
2022-11-18T20:12:28.144Z,-1.30
2022-11-18T20:14:54.822Z,-1.30
2022-11-18T20:17:22.435Z,-1.30
2022-11-18T20:19:49.131Z,-1.30
2022-11-18T20:22:15.786Z,-1.40
2022-11-18T20:24:42.439Z,-1.40
2022-11-18T20:27:09.316Z,-1.30
2022-11-18T20:29:35.976Z,-1.40
2022-11-18T20:32:02.796Z,-1.40
2022-11-18T20:34:29.826Z,-1.50
2022-11-18T20:36:56.597Z,-1.50
2022-11-18T20:39:23.311Z,-1.50
2022-11-18T20:42:08.878Z,-1.50
2022-11-18T20:44:35.532Z,-1.50
2022-11-18T20:47:02.202Z,-1.50
2022-11-18T20:49:28.917Z,-1.50
2022-11-18T20:51:55.574Z,-1.50
2022-11-18T20:54:22.222Z,-1.50
2022-11-18T20:56:48.899Z,-1.50
2022-11-18T20:59:15.868Z,-1.50
2022-11-18T21:01:42.890Z,-1.50
2022-11-18T21:04:10.638Z,-1.50
2022-11-18T21:06:37.644Z,-1.50
2022-11-18T21:09:05.202Z,-1.50
2022-11-18T21:11:35.395Z,-1.60
2022-11-18T21:14:21.884Z,-1.60
2022-11-18T21:16:51.082Z,-1.60
2022-11-18T21:19:18.144Z,-1.60
2022-11-18T21:21:45.109Z,-1.60
2022-11-18T21:24:13.085Z,-1.60
2022-11-18T21:26:40.239Z,-1.60
2022-11-18T21:29:08.220Z,-1.60
2022-11-18T21:31:34.949Z,-1.60
2022-11-18T21:34:01.677Z,-1.60
2022-11-18T21:36:28.491Z,-1.60
2022-11-18T21:38:56.724Z,-1.60
2022-11-18T21:41:23.607Z,-1.60
2022-11-18T21:44:04.439Z,-1.70
2022-11-18T21:46:33.361Z,-1.70
2022-11-18T21:49:00.690Z,-1.70
2022-11-18T21:51:27.793Z,-1.80
2022-11-18T21:53:54.668Z,-1.80
2022-11-18T21:56:22.536Z,-1.70
2022-11-18T21:58:49.677Z,-1.80
2022-11-18T22:01:18.346Z,-1.80
2022-11-18T22:03:53.727Z,-1.80
2022-11-18T22:06:22.444Z,-1.80
2022-11-18T22:08:49.110Z,-1.80
2022-11-18T22:11:16.198Z,-1.80
2022-11-18T22:13:43.294Z,-1.80
2022-11-18T22:16:11.636Z,-1.80
2022-11-18T22:18:39.513Z,-1.80
2022-11-18T22:21:08.842Z,-1.80
2022-11-18T22:23:35.492Z,-1.80
2022-11-18T22:26:08.760Z,-1.70
2022-11-18T22:28:35.551Z,-1.70
2022-11-18T22:31:03.716Z,-1.70
2022-11-18T22:33:33.909Z,-1.80
2022-11-18T22:36:04.655Z,-1.80
2022-11-18T22:38:31.397Z,-1.80
2022-11-18T22:40:58.789Z,-1.80
2022-11-18T22:43:25.624Z,-1.80
2022-11-18T22:45:59.745Z,-1.80
2022-11-18T22:48:26.542Z,-1.80
2022-11-18T22:51:03.419Z,-1.80
2022-11-18T22:53:30.577Z,-1.80
2022-11-18T22:56:01.208Z,-1.80
2022-11-18T22:58:27.921Z,-1.80
2022-11-18T23:00:54.642Z,-1.80
2022-11-18T23:03:21.691Z,-1.90
2022-11-18T23:05:48.360Z,-1.90
2022-11-18T23:08:15.120Z,-1.90
2022-11-18T23:10:41.918Z,-1.80
2022-11-18T23:13:28.717Z,-1.90
2022-11-18T23:16:01.658Z,-1.90
2022-11-18T23:18:29.274Z,-1.90
2022-11-18T23:21:00.504Z,-1.90
2022-11-18T23:23:30.668Z,-1.90
2022-11-18T23:26:07.909Z,-1.90
2022-11-18T23:28:36.354Z,-1.90
2022-11-18T23:31:07.212Z,-1.90
2022-11-18T23:33:34.419Z,-1.90
2022-11-18T23:36:01.395Z,-1.90
2022-11-18T23:38:28.355Z,-1.90
2022-11-18T23:40:58.849Z,-1.90
2022-11-18T23:43:26.291Z,-1.90
2022-11-18T23:45:53.705Z,-1.90
2022-11-18T23:48:21.024Z,-1.90
2022-11-18T23:50:57.924Z,-2.00
2022-11-18T23:53:25.475Z,-2.00
2022-11-18T23:55:52.443Z,-2.00
2022-11-18T23:58:19.339Z,-2.00
